SBOSBO DUR / FALE
Speedbird OnlineSpeedbird Online DUR / FALE

King Shaka International Airport
21:15 21°C

Location Durban, South Africa
Latitude: -29.6144444444
Longitude: 31.1197222222
Web Wikipedia
Altitude 90 Meter / 295 Feet
Distance 9,516 KM / 5,913 Miles
from London.
Time Zone UTC +2 hours (Africa/Johannesburg)
Codes IATA: DUR
ICAO: FALE
Currency £1 equals ZAR 19.47
Runways
RunwayLength (m)Surface
063700Asphalt
243700Asphalt
Radio
TypeDescriptionFrequency
DURBAN Approach125.75
KING SHAKA ATIS127
KING SHAKA INT.KING SHAKA INT. Tower118.45
KING SHAKA INT.121.65
VOT TGV115.6
Live ATC
METAR FALE 241900Z 21012KT 9999 -DZ OVC006 21/19 Q1015 NOSIG
TAF TAF AMD FALE 241819Z 2418/2524 22008KT 9999 BKN010 TX34/2512Z TN16/2504Z TEMPO 2418/2422 4500 DZ OVC005 FM250800 03015KT CAVOK BECMG 2516/2518 VRB03KT BECMG 2522/2524 20015KT
Weather As Of 24 Sep 2022 21:15
Description Light intensity drizzle
Wind 22 km/h from South-West (210°)
Cloud Cover 100%
Precipitation Rain: none, Snow: none
Sunrise 05:42
Sunset 17:52
Lounges uMp(h)afa Lounge TEMPORARILY CLOSED, International Departure


© 2017-2022 Speedbird Online